createdAt,value
2022-12-15T00:05:08.305Z,33.50
2022-12-15T00:11:28.537Z,52.00
2022-12-15T00:17:49.353Z,41.25
2022-12-15T00:24:09.626Z,35.25
2022-12-15T00:30:30.792Z,41.50
2022-12-15T00:36:51.500Z,34.00
2022-12-15T00:42:54.153Z,35.75
2022-12-15T00:48:56.145Z,37.00
2022-12-15T00:55:18.158Z,40.50
2022-12-15T01:01:38.920Z,31.67
2022-12-15T01:07:59.830Z,38.75
2022-12-15T01:14:20.276Z,35.75
2022-12-15T01:20:22.286Z,36.00
2022-12-15T01:26:24.314Z,34.00
2022-12-15T01:32:27.986Z,29.75
2022-12-15T01:38:31.102Z,39.75
2022-12-15T01:44:33.209Z,33.75
2022-12-15T01:50:42.768Z,29.00
2022-12-15T01:56:48.621Z,29.25
2022-12-15T02:02:51.376Z,29.75
2022-12-15T02:08:55.632Z,32.25
2022-12-15T02:15:10.023Z,38.50
2022-12-15T02:21:20.875Z,39.00
2022-12-15T02:27:37.745Z,37.00
2022-12-15T02:33:54.026Z,41.00
2022-12-15T02:39:56.708Z,38.75
2022-12-15T02:46:27.905Z,37.25
2022-12-15T02:52:38.908Z,37.25
2022-12-15T02:58:43.866Z,32.25
2022-12-15T03:04:45.941Z,37.50
2022-12-15T03:10:51.194Z,39.75
2022-12-15T03:16:54.578Z,34.75
2022-12-15T03:22:57.417Z,44.00
2022-12-15T03:28:59.361Z,33.00
2022-12-15T03:35:01.397Z,35.50
2022-12-15T03:41:07.091Z,39.75
2022-12-15T03:47:14.114Z,29.50
2022-12-15T03:53:16.356Z,27.75
2022-12-15T03:59:18.326Z,30.50
2022-12-15T04:05:22.971Z,31.25
2022-12-15T04:11:24.956Z,30.50
2022-12-15T04:17:26.970Z,33.00
2022-12-15T04:23:31.090Z,29.25
2022-12-15T04:29:51.531Z,31.33
2022-12-15T04:36:12.081Z,31.25
2022-12-15T04:42:34.651Z,36.50
2022-12-15T04:48:57.187Z,33.25
2022-12-15T04:55:17.718Z,29.25
2022-12-15T05:08:31.437Z,30.50
2022-12-15T05:14:52.144Z,36.00
2022-12-15T05:21:13.907Z,31.75
2022-12-15T05:27:36.051Z,28.25
2022-12-15T05:33:39.094Z,26.00
2022-12-15T05:39:41.059Z,31.25
2022-12-15T05:45:43.145Z,25.75
2022-12-15T05:51:48.228Z,33.25
2022-12-15T05:57:54.697Z,23.75
2022-12-15T06:03:59.185Z,35.75
2022-12-15T06:10:01.150Z,33.75
2022-12-15T06:16:15.366Z,35.25
2022-12-15T06:22:18.400Z,29.50
2022-12-15T06:28:24.068Z,30.75
2022-12-15T06:34:27.257Z,35.25
2022-12-15T06:40:32.168Z,36.75
2022-12-15T06:46:38.788Z,34.25
2022-12-15T06:52:42.377Z,38.00
2022-12-15T06:58:47.819Z,45.75
2022-12-15T07:04:53.392Z,38.25
2022-12-15T07:10:55.625Z,44.25
2022-12-15T07:16:57.756Z,46.00
2022-12-15T07:23:11.493Z,40.25
2022-12-15T07:29:21.131Z,47.00
2022-12-15T07:35:26.331Z,61.25
2022-12-15T07:41:30.285Z,40.75
2022-12-15T07:47:34.010Z,52.50
2022-12-15T07:53:37.387Z,51.75
2022-12-15T07:59:39.381Z,54.25
2022-12-15T08:05:41.462Z,46.00
2022-12-15T08:11:45.222Z,45.00
2022-12-15T08:17:48.549Z,38.75
2022-12-15T08:23:50.889Z,53.50
2022-12-15T08:29:53.658Z,43.25
2022-12-15T08:36:07.422Z,39.75
2022-12-15T08:42:09.465Z,35.00
2022-12-15T08:48:11.462Z,39.00
2022-12-15T08:54:13.916Z,35.25
2022-12-15T09:00:16.274Z,38.75
2022-12-15T09:06:35.250Z,39.00
2022-12-15T09:12:41.944Z,40.25
2022-12-15T09:18:48.539Z,35.50
2022-12-15T09:24:50.885Z,26.00
2022-12-15T09:30:53.334Z,29.00
2022-12-15T09:36:56.866Z,31.25
2022-12-15T09:43:25.734Z,26.25
2022-12-15T09:49:31.087Z,21.75
2022-12-15T09:55:39.851Z,17.50
2022-12-15T10:02:10.307Z,32.50
2022-12-15T10:08:15.258Z,27.25
2022-12-15T10:14:50.818Z,28.00
2022-12-15T10:20:57.124Z,36.50
2022-12-15T10:27:17.448Z,29.75
2022-12-15T10:33:24.484Z,29.50
2022-12-15T10:39:45.971Z,21.00
2022-12-15T10:46:04.952Z,23.00
2022-12-15T10:52:27.537Z,26.25
2022-12-15T10:58:31.486Z,37.75
2022-12-15T11:04:36.688Z,23.50
2022-12-15T11:11:11.934Z,26.25
2022-12-15T11:17:19.640Z,26.00
2022-12-15T11:23:26.866Z,17.75
2022-12-15T11:29:53.128Z,27.50
2022-12-15T11:36:10.940Z,29.50
2022-12-15T11:42:44.023Z,25.75
2022-12-15T11:49:15.403Z,25.00
2022-12-15T11:55:27.646Z,28.50
2022-12-15T12:01:55.349Z,28.50
2022-12-15T12:08:17.311Z,37.67
2022-12-15T12:14:34.871Z,35.75
2022-12-15T12:20:45.880Z,38.50
2022-12-15T12:26:57.258Z,34.75
2022-12-15T12:33:02.821Z,28.50
2022-12-15T12:39:05.401Z,30.75
2022-12-15T12:45:12.582Z,28.25
2022-12-15T12:51:27.624Z,32.00
2022-12-15T12:57:41.936Z,28.25
2022-12-15T13:03:44.081Z,25.00
2022-12-15T13:10:12.928Z,32.75
2022-12-15T13:16:23.517Z,32.00
2022-12-15T13:22:42.684Z,25.25
2022-12-15T13:28:50.584Z,27.25
2022-12-15T13:34:52.986Z,24.75
2022-12-15T13:40:55.525Z,29.00
2022-12-15T13:47:07.161Z,38.00
2022-12-15T13:53:19.425Z,39.75
2022-12-15T13:59:28.025Z,34.50
2022-12-15T14:05:32.266Z,33.25
2022-12-15T14:18:01.611Z,52.00
2022-12-15T14:24:37.998Z,34.75
2022-12-15T14:30:41.518Z,30.00
2022-12-15T14:36:44.512Z,38.00
2022-12-15T14:42:47.578Z,38.00
2022-12-15T14:49:03.767Z,38.00
2022-12-15T14:55:21.256Z,42.25
2022-12-15T15:01:30.071Z,34.25
2022-12-15T15:07:33.967Z,45.00
2022-12-15T15:13:40.227Z,39.25
2022-12-15T15:20:05.922Z,45.75
2022-12-15T15:26:10.836Z,39.00
2022-12-15T15:32:23.696Z,43.75
2022-12-15T15:38:33.590Z,42.50
2022-12-15T15:44:36.940Z,38.25
2022-12-15T15:50:39.010Z,42.00
2022-12-15T15:56:41.734Z,49.00
2022-12-15T16:02:44.257Z,39.75
2022-12-15T16:08:51.242Z,40.00
2022-12-15T16:14:54.820Z,69.50
2022-12-15T16:20:58.232Z,67.00
2022-12-15T16:27:00.366Z,76.00
2022-12-15T16:33:05.094Z,81.50
2022-12-15T16:39:24.987Z,51.50
2022-12-15T16:45:29.658Z,50.75
2022-12-15T16:51:40.554Z,56.50
2022-12-15T16:57:43.395Z,50.50
2022-12-15T17:03:45.759Z,49.25
2022-12-15T17:09:49.827Z,53.00
2022-12-15T17:15:53.303Z,63.25
2022-12-15T17:21:57.063Z,58.25
2022-12-15T17:28:01.449Z,56.25
2022-12-15T17:34:33.520Z,55.50
2022-12-15T17:40:37.143Z,50.00
2022-12-15T17:46:40.433Z,64.50
2022-12-15T17:52:48.107Z,64.75
2022-12-15T17:58:50.363Z,61.25
2022-12-15T18:04:53.989Z,68.00
2022-12-15T18:10:58.142Z,58.50
2022-12-15T18:17:00.170Z,61.50
2022-12-15T18:23:12.405Z,63.75
2022-12-15T18:29:18.274Z,69.50
2022-12-15T18:35:34.521Z,68.50
2022-12-15T18:41:36.503Z,64.50
2022-12-15T18:47:38.558Z,65.25
2022-12-15T18:53:41.274Z,57.75
2022-12-15T18:59:45.624Z,77.50
2022-12-15T19:05:49.094Z,59.50
2022-12-15T19:12:10.132Z,44.75
2022-12-15T19:18:35.679Z,50.00
2022-12-15T19:24:55.855Z,63.75
2022-12-15T19:30:58.216Z,54.75
2022-12-15T19:37:02.716Z,48.75
2022-12-15T19:43:05.549Z,46.75
2022-12-15T19:49:09.635Z,63.00
2022-12-15T19:55:16.512Z,65.00
2022-12-15T20:01:21.346Z,59.25
2022-12-15T20:07:33.449Z,46.50
2022-12-15T20:13:36.467Z,48.50
2022-12-15T20:19:39.098Z,66.00
2022-12-15T20:25:42.092Z,71.25
2022-12-15T20:31:44.522Z,68.75
2022-12-15T20:37:47.779Z,70.25
2022-12-15T20:43:54.291Z,60.25
2022-12-15T20:49:57.703Z,56.00
2022-12-15T20:55:59.686Z,40.00
2022-12-15T21:02:01.876Z,58.25
2022-12-15T21:08:15.799Z,62.75
2022-12-15T21:14:23.710Z,41.75
2022-12-15T21:20:26.105Z,57.75
2022-12-15T21:26:29.239Z,67.00
2022-12-15T21:32:31.216Z,60.00
2022-12-15T21:38:40.330Z,59.00
2022-12-15T21:44:43.074Z,56.25
2022-12-15T21:50:50.337Z,60.00
2022-12-15T21:56:54.129Z,53.75
2022-12-15T22:02:57.217Z,65.00
2022-12-15T22:08:59.161Z,57.75
2022-12-15T22:15:02.325Z,68.50
2022-12-15T22:21:05.214Z,62.75
2022-12-15T22:27:19.880Z,60.00
2022-12-15T22:33:24.242Z,71.50
2022-12-15T22:39:26.647Z,64.75
2022-12-15T22:45:28.657Z,75.75
2022-12-15T22:51:31.048Z,72.25
2022-12-15T22:57:35.031Z,72.00
2022-12-15T23:03:38.766Z,74.00
2022-12-15T23:09:40.698Z,76.00
2022-12-15T23:16:02.782Z,71.33
2022-12-15T23:22:05.173Z,76.50
2022-12-15T23:28:07.401Z,77.75
2022-12-15T23:34:10.786Z,70.50
2022-12-15T23:40:13.561Z,65.33
2022-12-15T23:46:15.541Z,69.50
2022-12-15T23:52:18.595Z,65.75
2022-12-15T23:58:21.521Z,71.25
